sensor_id;sensor_type;location;lat;lon;timestamp;temperature;humidity
13203;DHT22;6666;51.626;7.530;2023-02-28T00:01:26;1.00;99.90
13203;DHT22;6666;51.626;7.530;2023-02-28T00:03:55;1.00;99.90
13203;DHT22;6666;51.626;7.530;2023-02-28T00:06:23;1.00;99.90
13203;DHT22;6666;51.626;7.530;2023-02-28T00:08:53;0.90;99.90
13203;DHT22;6666;51.626;7.530;2023-02-28T00:11:21;0.90;99.90
13203;DHT22;6666;51.626;7.530;2023-02-28T00:13:50;0.90;99.90
13203;DHT22;6666;51.626;7.530;2023-02-28T00:16:20;0.90;99.90
13203;DHT22;6666;51.626;7.530;2023-02-28T00:18:48;0.90;99.90
13203;DHT22;6666;51.626;7.530;2023-02-28T00:21:19;0.90;99.90
13203;DHT22;6666;51.626;7.530;2023-02-28T00:23:48;0.90;99.90
13203;DHT22;6666;51.626;7.530;2023-02-28T00:26:17;0.90;99.90
13203;DHT22;6666;51.626;7.530;2023-02-28T00:28:49;0.80;99.90
13203;DHT22;6666;51.626;7.530;2023-02-28T00:31:19;0.70;99.90
13203;DHT22;6666;51.626;7.530;2023-02-28T00:33:47;0.70;99.90
13203;DHT22;6666;51.626;7.530;2023-02-28T00:36:16;0.70;99.90
13203;DHT22;6666;51.626;7.530;2023-02-28T00:38:44;0.70;99.90
13203;DHT22;6666;51.626;7.530;2023-02-28T00:41:12;0.70;99.90
13203;DHT22;6666;51.626;7.530;2023-02-28T00:43:42;0.80;99.90
13203;DHT22;6666;51.626;7.530;2023-02-28T00:46:11;0.70;99.90
13203;DHT22;6666;51.626;7.530;2023-02-28T00:48:39;0.70;99.90
13203;DHT22;6666;51.626;7.530;2023-02-28T00:51:08;0.70;99.90
13203;DHT22;6666;51.626;7.530;2023-02-28T00:53:36;0.70;99.90
13203;DHT22;6666;51.626;7.530;2023-02-28T00:56:05;0.60;99.90
13203;DHT22;6666;51.626;7.530;2023-02-28T00:58:33;0.70;99.90
13203;DHT22;6666;51.626;7.530;2023-02-28T01:01:03;0.70;99.90
13203;DHT22;6666;51.626;7.530;2023-02-28T01:03:31;0.70;99.90
13203;DHT22;6666;51.626;7.530;2023-02-28T01:06:00;0.50;99.90
13203;DHT22;6666;51.626;7.530;2023-02-28T01:08:28;0.40;99.90
13203;DHT22;6666;51.626;7.530;2023-02-28T01:10:57;0.30;99.90
13203;DHT22;6666;51.626;7.530;2023-02-28T01:13:25;0.20;99.90
13203;DHT22;6666;51.626;7.530;2023-02-28T01:15:55;0.00;99.90
13203;DHT22;6666;51.626;7.530;2023-02-28T01:18:25;0.00;99.90
13203;DHT22;6666;51.626;7.530;2023-02-28T01:20:54;0.00;99.90
13203;DHT22;6666;51.626;7.530;2023-02-28T01:23:23;-0.20;99.90
13203;DHT22;6666;51.626;7.530;2023-02-28T01:25:51;-0.40;99.90
13203;DHT22;6666;51.626;7.530;2023-02-28T01:28:20;-0.30;99.90
13203;DHT22;6666;51.626;7.530;2023-02-28T01:30:49;-0.30;99.90
13203;DHT22;6666;51.626;7.530;2023-02-28T01:33:18;-0.40;99.90
13203;DHT22;6666;51.626;7.530;2023-02-28T01:35:48;-0.40;99.90
13203;DHT22;6666;51.626;7.530;2023-02-28T01:38:16;-0.50;99.90
13203;DHT22;6666;51.626;7.530;2023-02-28T01:40:49;-0.50;99.90
13203;DHT22;6666;51.626;7.530;2023-02-28T01:43:22;-0.50;99.90
13203;DHT22;6666;51.626;7.530;2023-02-28T01:45:51;-0.60;99.90
13203;DHT22;6666;51.626;7.530;2023-02-28T01:48:23;-0.70;99.90
13203;DHT22;6666;51.626;7.530;2023-02-28T01:50:55;-0.60;99.90
13203;DHT22;6666;51.626;7.530;2023-02-28T01:53:29;-0.60;99.90
13203;DHT22;6666;51.626;7.530;2023-02-28T01:56:00;-0.70;99.90
13203;DHT22;6666;51.626;7.530;2023-02-28T01:58:30;-0.60;99.90
13203;DHT22;6666;51.626;7.530;2023-02-28T02:00:59;-0.50;99.90
13203;DHT22;6666;51.626;7.530;2023-02-28T02:03:30;-0.50;99.90
13203;DHT22;6666;51.626;7.530;2023-02-28T02:06:00;-0.50;99.90
13203;DHT22;6666;51.626;7.530;2023-02-28T02:08:29;-0.50;99.90
13203;DHT22;6666;51.626;7.530;2023-02-28T02:11:00;-0.60;99.90
13203;DHT22;6666;51.626;7.530;2023-02-28T02:13:42;-0.60;99.90
13203;DHT22;6666;51.626;7.530;2023-02-28T02:16:20;-0.70;99.90
13203;DHT22;6666;51.626;7.530;2023-02-28T02:18:54;-0.60;99.90
13203;DHT22;6666;51.626;7.530;2023-02-28T02:24:49;-0.70;99.90
13203;DHT22;6666;51.626;7.530;2023-02-28T02:27:29;-0.80;99.90
13203;DHT22;6666;51.626;7.530;2023-02-28T02:30:21;-0.80;99.90
13203;DHT22;6666;51.626;7.530;2023-02-28T02:33:06;-0.80;99.90
13203;DHT22;6666;51.626;7.530;2023-02-28T02:35:42;-0.90;99.90
13203;DHT22;6666;51.626;7.530;2023-02-28T02:38:19;-1.00;99.90
13203;DHT22;6666;51.626;7.530;2023-02-28T02:40:56;-1.00;99.90
13203;DHT22;6666;51.626;7.530;2023-02-28T02:43:29;-1.00;99.90
13203;DHT22;6666;51.626;7.530;2023-02-28T02:46:04;-1.00;99.90
13203;DHT22;6666;51.626;7.530;2023-02-28T02:48:35;-1.00;99.90
13203;DHT22;6666;51.626;7.530;2023-02-28T02:51:10;-1.00;99.90
13203;DHT22;6666;51.626;7.530;2023-02-28T02:53:44;-0.90;99.90
13203;DHT22;6666;51.626;7.530;2023-02-28T02:56:18;-0.90;99.90
13203;DHT22;6666;51.626;7.530;2023-02-28T02:58:48;-0.90;99.90
13203;DHT22;6666;51.626;7.530;2023-02-28T03:01:19;-1.00;99.90
13203;DHT22;6666;51.626;7.530;2023-02-28T03:03:58;-1.00;99.90
13203;DHT22;6666;51.626;7.530;2023-02-28T03:06:28;-1.00;99.90
13203;DHT22;6666;51.626;7.530;2023-02-28T03:08:57;-0.90;99.90
13203;DHT22;6666;51.626;7.530;2023-02-28T03:11:25;-0.90;99.90
13203;DHT22;6666;51.626;7.530;2023-02-28T03:14:25;-0.80;99.90
13203;DHT22;6666;51.626;7.530;2023-02-28T03:17:15;-0.80;99.90
13203;DHT22;6666;51.626;7.530;2023-02-28T03:20:04;-0.90;99.90
13203;DHT22;6666;51.626;7.530;2023-02-28T03:22:48;-0.90;99.90
13203;DHT22;6666;51.626;7.530;2023-02-28T03:25:30;-1.00;99.90
13203;DHT22;6666;51.626;7.530;2023-02-28T03:28:03;-1.10;99.90
13203;DHT22;6666;51.626;7.530;2023-02-28T03:30:41;-1.20;99.90
13203;DHT22;6666;51.626;7.530;2023-02-28T03:33:14;-1.20;99.90
13203;DHT22;6666;51.626;7.530;2023-02-28T03:35:45;-1.30;99.90
13203;DHT22;6666;51.626;7.530;2023-02-28T03:38:20;-1.30;99.90
13203;DHT22;6666;51.626;7.530;2023-02-28T03:40:53;-1.30;99.90
13203;DHT22;6666;51.626;7.530;2023-02-28T03:43:26;-1.30;99.90
13203;DHT22;6666;51.626;7.530;2023-02-28T03:45:56;-1.40;99.90
13203;DHT22;6666;51.626;7.530;2023-02-28T03:48:30;-1.40;99.90
13203;DHT22;6666;51.626;7.530;2023-02-28T03:51:00;-1.40;99.90
13203;DHT22;6666;51.626;7.530;2023-02-28T03:53:33;-1.50;99.90
13203;DHT22;6666;51.626;7.530;2023-02-28T03:56:06;-1.50;99.90
13203;DHT22;6666;51.626;7.530;2023-02-28T03:58:39;-1.40;99.90
13203;DHT22;6666;51.626;7.530;2023-02-28T04:01:15;-1.30;99.90
13203;DHT22;6666;51.626;7.530;2023-02-28T04:03:45;-1.20;99.90
13203;DHT22;6666;51.626;7.530;2023-02-28T04:06:16;-1.30;99.90
13203;DHT22;6666;51.626;7.530;2023-02-28T04:08:47;-1.40;99.90
13203;DHT22;6666;51.626;7.530;2023-02-28T04:11:21;-1.40;99.90
13203;DHT22;6666;51.626;7.530;2023-02-28T04:13:50;-1.40;99.90
13203;DHT22;6666;51.626;7.530;2023-02-28T04:16:18;-1.50;99.90
13203;DHT22;6666;51.626;7.530;2023-02-28T04:19:00;-1.50;99.90
13203;DHT22;6666;51.626;7.530;2023-02-28T04:21:31;-1.60;99.90
13203;DHT22;6666;51.626;7.530;2023-02-28T04:24:01;-1.70;99.90
13203;DHT22;6666;51.626;7.530;2023-02-28T04:26:30;-1.70;99.90
13203;DHT22;6666;51.626;7.530;2023-02-28T04:28:59;-1.80;99.90
13203;DHT22;6666;51.626;7.530;2023-02-28T04:31:27;-1.90;99.90
13203;DHT22;6666;51.626;7.530;2023-02-28T04:33:56;-1.90;99.90
13203;DHT22;6666;51.626;7.530;2023-02-28T04:36:25;-1.80;99.90
13203;DHT22;6666;51.626;7.530;2023-02-28T04:38:53;-1.80;99.90
13203;DHT22;6666;51.626;7.530;2023-02-28T04:41:23;-1.70;99.90
13203;DHT22;6666;51.626;7.530;2023-02-28T04:43:52;-1.80;99.90
13203;DHT22;6666;51.626;7.530;2023-02-28T04:46:20;-1.70;99.90
13203;DHT22;6666;51.626;7.530;2023-02-28T04:48:49;-1.80;99.90
13203;DHT22;6666;51.626;7.530;2023-02-28T04:51:18;-1.80;99.90
13203;DHT22;6666;51.626;7.530;2023-02-28T04:53:47;-1.90;99.90
13203;DHT22;6666;51.626;7.530;2023-02-28T04:56:17;-1.90;99.90
13203;DHT22;6666;51.626;7.530;2023-02-28T04:58:47;-1.90;99.90
13203;DHT22;6666;51.626;7.530;2023-02-28T05:01:21;-1.80;99.90
13203;DHT22;6666;51.626;7.530;2023-02-28T05:03:51;-1.90;99.90
13203;DHT22;6666;51.626;7.530;2023-02-28T05:06:20;-1.90;99.90
13203;DHT22;6666;51.626;7.530;2023-02-28T05:08:50;-1.90;99.90
13203;DHT22;6666;51.626;7.530;2023-02-28T05:11:20;-2.00;99.90
13203;DHT22;6666;51.626;7.530;2023-02-28T05:13:51;-1.90;99.90
13203;DHT22;6666;51.626;7.530;2023-02-28T05:16:20;-1.90;99.90
13203;DHT22;6666;51.626;7.530;2023-02-28T05:18:49;-2.10;99.90
13203;DHT22;6666;51.626;7.530;2023-02-28T05:21:25;-2.20;99.90
13203;DHT22;6666;51.626;7.530;2023-02-28T05:23:55;-2.20;99.90
13203;DHT22;6666;51.626;7.530;2023-02-28T05:26:24;-2.20;99.90
13203;DHT22;6666;51.626;7.530;2023-02-28T05:28:54;-2.30;99.90
13203;DHT22;6666;51.626;7.530;2023-02-28T05:31:22;-2.30;99.90
13203;DHT22;6666;51.626;7.530;2023-02-28T05:33:51;-2.30;99.90
13203;DHT22;6666;51.626;7.530;2023-02-28T05:36:19;-2.30;99.90
13203;DHT22;6666;51.626;7.530;2023-02-28T05:38:49;-2.20;99.90
13203;DHT22;6666;51.626;7.530;2023-02-28T05:41:18;-2.30;99.90
13203;DHT22;6666;51.626;7.530;2023-02-28T05:43:47;-2.40;99.90
13203;DHT22;6666;51.626;7.530;2023-02-28T05:46:17;-2.30;99.90
13203;DHT22;6666;51.626;7.530;2023-02-28T05:48:47;-2.30;99.90
13203;DHT22;6666;51.626;7.530;2023-02-28T05:51:16;-2.30;99.90
13203;DHT22;6666;51.626;7.530;2023-02-28T05:53:44;-2.40;99.90
13203;DHT22;6666;51.626;7.530;2023-02-28T05:56:13;-2.40;99.90
13203;DHT22;6666;51.626;7.530;2023-02-28T05:58:41;-2.40;99.90
13203;DHT22;6666;51.626;7.530;2023-02-28T06:01:23;-2.40;99.90
13203;DHT22;6666;51.626;7.530;2023-02-28T06:03:52;-2.40;99.90
13203;DHT22;6666;51.626;7.530;2023-02-28T06:06:20;-2.40;99.90
13203;DHT22;6666;51.626;7.530;2023-02-28T06:08:48;-2.50;99.90
13203;DHT22;6666;51.626;7.530;2023-02-28T06:11:16;-2.50;99.90
13203;DHT22;6666;51.626;7.530;2023-02-28T06:13:46;-2.50;99.90
13203;DHT22;6666;51.626;7.530;2023-02-28T06:16:15;-2.50;99.90
13203;DHT22;6666;51.626;7.530;2023-02-28T06:18:45;-2.60;99.90
13203;DHT22;6666;51.626;7.530;2023-02-28T06:21:13;-2.60;99.90
13203;DHT22;6666;51.626;7.530;2023-02-28T06:23:41;-2.70;99.90
13203;DHT22;6666;51.626;7.530;2023-02-28T06:26:10;-2.80;99.90
13203;DHT22;6666;51.626;7.530;2023-02-28T06:28:39;-2.70;99.90
13203;DHT22;6666;51.626;7.530;2023-02-28T06:31:09;-2.70;99.90
13203;DHT22;6666;51.626;7.530;2023-02-28T06:33:38;-2.70;99.90
13203;DHT22;6666;51.626;7.530;2023-02-28T06:36:09;-2.80;99.90
13203;DHT22;6666;51.626;7.530;2023-02-28T06:38:37;-2.70;99.90
13203;DHT22;6666;51.626;7.530;2023-02-28T06:41:06;-2.70;99.90
13203;DHT22;6666;51.626;7.530;2023-02-28T06:43:36;-2.60;99.90
13203;DHT22;6666;51.626;7.530;2023-02-28T06:46:07;-2.60;99.90
13203;DHT22;6666;51.626;7.530;2023-02-28T06:48:36;-2.50;99.90
13203;DHT22;6666;51.626;7.530;2023-02-28T06:51:06;-2.60;99.90
13203;DHT22;6666;51.626;7.530;2023-02-28T06:53:37;-2.60;99.90
13203;DHT22;6666;51.626;7.530;2023-02-28T06:56:06;-2.60;99.90
13203;DHT22;6666;51.626;7.530;2023-02-28T06:58:35;-2.70;99.90
13203;DHT22;6666;51.626;7.530;2023-02-28T07:01:05;-2.60;99.90
13203;DHT22;6666;51.626;7.530;2023-02-28T07:03:34;-2.60;99.90
13203;DHT22;6666;51.626;7.530;2023-02-28T07:06:05;-2.50;99.90
13203;DHT22;6666;51.626;7.530;2023-02-28T07:08:34;-2.40;99.90
13203;DHT22;6666;51.626;7.530;2023-02-28T07:11:04;-2.40;99.90
13203;DHT22;6666;51.626;7.530;2023-02-28T07:13:33;-2.40;99.90
13203;DHT22;6666;51.626;7.530;2023-02-28T07:16:03;-2.40;99.90
13203;DHT22;6666;51.626;7.530;2023-02-28T07:18:32;-2.40;99.90
13203;DHT22;6666;51.626;7.530;2023-02-28T07:21:04;-2.40;99.90
13203;DHT22;6666;51.626;7.530;2023-02-28T07:23:33;-2.30;99.90
13203;DHT22;6666;51.626;7.530;2023-02-28T07:26:03;-2.30;99.90
13203;DHT22;6666;51.626;7.530;2023-02-28T07:28:32;-2.30;99.90
13203;DHT22;6666;51.626;7.530;2023-02-28T07:31:04;-2.20;99.90
13203;DHT22;6666;51.626;7.530;2023-02-28T07:33:33;-2.10;99.90
13203;DHT22;6666;51.626;7.530;2023-02-28T07:36:02;-2.10;99.90
13203;DHT22;6666;51.626;7.530;2023-02-28T07:38:30;-2.10;99.90
13203;DHT22;6666;51.626;7.530;2023-02-28T07:40:58;-2.10;99.90
13203;DHT22;6666;51.626;7.530;2023-02-28T07:43:28;-2.00;99.90
13203;DHT22;6666;51.626;7.530;2023-02-28T07:46:02;-1.90;99.90
13203;DHT22;6666;51.626;7.530;2023-02-28T07:48:30;-1.70;99.90
13203;DHT22;6666;51.626;7.530;2023-02-28T07:50:59;-1.40;99.90
13203;DHT22;6666;51.626;7.530;2023-02-28T07:53:28;-1.30;99.90
13203;DHT22;6666;51.626;7.530;2023-02-28T07:55:57;-1.10;99.90
13203;DHT22;6666;51.626;7.530;2023-02-28T07:58:27;-1.00;99.90
13203;DHT22;6666;51.626;7.530;2023-02-28T08:00:56;-0.90;99.90
13203;DHT22;6666;51.626;7.530;2023-02-28T08:03:25;-0.80;99.90
13203;DHT22;6666;51.626;7.530;2023-02-28T08:05:53;-0.70;99.90
13203;DHT22;6666;51.626;7.530;2023-02-28T08:08:22;-0.80;99.90
13203;DHT22;6666;51.626;7.530;2023-02-28T08:10:50;-0.60;99.90
13203;DHT22;6666;51.626;7.530;2023-02-28T08:13:18;-0.40;99.90
13203;DHT22;6666;51.626;7.530;2023-02-28T08:15:48;-0.40;99.90
13203;DHT22;6666;51.626;7.530;2023-02-28T08:18:17;-0.50;99.90
13203;DHT22;6666;51.626;7.530;2023-02-28T08:20:45;-0.40;99.90
13203;DHT22;6666;51.626;7.530;2023-02-28T08:23:13;-0.30;99.90
13203;DHT22;6666;51.626;7.530;2023-02-28T08:25:42;-0.20;99.90
13203;DHT22;6666;51.626;7.530;2023-02-28T08:28:10;0.00;99.90
13203;DHT22;6666;51.626;7.530;2023-02-28T08:30:38;0.00;99.90
13203;DHT22;6666;51.626;7.530;2023-02-28T08:33:09;0.10;99.90
13203;DHT22;6666;51.626;7.530;2023-02-28T08:35:37;0.20;99.90
13203;DHT22;6666;51.626;7.530;2023-02-28T08:38:06;0.20;99.90
13203;DHT22;6666;51.626;7.530;2023-02-28T08:40:34;0.30;99.90
13203;DHT22;6666;51.626;7.530;2023-02-28T08:43:02;0.30;99.90
13203;DHT22;6666;51.626;7.530;2023-02-28T08:45:31;0.40;99.90
13203;DHT22;6666;51.626;7.530;2023-02-28T08:47:59;0.60;99.90
13203;DHT22;6666;51.626;7.530;2023-02-28T08:50:29;0.60;99.90
13203;DHT22;6666;51.626;7.530;2023-02-28T08:52:57;0.80;99.90
13203;DHT22;6666;51.626;7.530;2023-02-28T08:55:25;0.90;99.90
13203;DHT22;6666;51.626;7.530;2023-02-28T08:57:53;1.00;99.90
13203;DHT22;6666;51.626;7.530;2023-02-28T09:00:22;1.00;99.90
13203;DHT22;6666;51.626;7.530;2023-02-28T09:02:51;1.10;99.90
13203;DHT22;6666;51.626;7.530;2023-02-28T09:05:19;1.10;99.90
13203;DHT22;6666;51.626;7.530;2023-02-28T09:07:49;1.20;99.90
13203;DHT22;6666;51.626;7.530;2023-02-28T09:10:17;1.20;99.90
13203;DHT22;6666;51.626;7.530;2023-02-28T09:12:46;1.40;99.90
13203;DHT22;6666;51.626;7.530;2023-02-28T09:15:14;1.50;99.90
13203;DHT22;6666;51.626;7.530;2023-02-28T09:17:42;1.60;99.90
13203;DHT22;6666;51.626;7.530;2023-02-28T09:20:14;1.70;99.90
13203;DHT22;6666;51.626;7.530;2023-02-28T09:22:42;1.80;99.90
13203;DHT22;6666;51.626;7.530;2023-02-28T09:25:12;1.80;99.90
13203;DHT22;6666;51.626;7.530;2023-02-28T09:27:40;1.90;99.90
13203;DHT22;6666;51.626;7.530;2023-02-28T09:30:10;2.10;99.90
13203;DHT22;6666;51.626;7.530;2023-02-28T09:32:38;2.20;99.90
13203;DHT22;6666;51.626;7.530;2023-02-28T09:35:07;2.20;99.90
13203;DHT22;6666;51.626;7.530;2023-02-28T09:37:40;2.30;99.90
13203;DHT22;6666;51.626;7.530;2023-02-28T09:40:10;2.30;99.90
13203;DHT22;6666;51.626;7.530;2023-02-28T09:42:40;2.40;99.90
13203;DHT22;6666;51.626;7.530;2023-02-28T09:45:24;2.40;99.90
13203;DHT22;6666;51.626;7.530;2023-02-28T09:47:55;2.50;99.90
13203;DHT22;6666;51.626;7.530;2023-02-28T09:50:30;2.50;99.90
13203;DHT22;6666;51.626;7.530;2023-02-28T09:53:02;2.80;99.90
13203;DHT22;6666;51.626;7.530;2023-02-28T09:55:37;2.80;99.90
13203;DHT22;6666;51.626;7.530;2023-02-28T09:58:18;2.90;99.90
13203;DHT22;6666;51.626;7.530;2023-02-28T10:00:56;3.10;99.90
13203;DHT22;6666;51.626;7.530;2023-02-28T10:03:30;3.20;99.90
13203;DHT22;6666;51.626;7.530;2023-02-28T10:06:07;3.30;99.90
13203;DHT22;6666;51.626;7.530;2023-02-28T10:08:38;3.20;99.90
13203;DHT22;6666;51.626;7.530;2023-02-28T10:11:15;3.40;99.90
13203;DHT22;6666;51.626;7.530;2023-02-28T10:13:58;3.30;99.90
13203;DHT22;6666;51.626;7.530;2023-02-28T10:16:36;3.40;99.90
13203;DHT22;6666;51.626;7.530;2023-02-28T10:19:09;3.40;99.90
13203;DHT22;6666;51.626;7.530;2023-02-28T10:21:45;3.40;99.90
13203;DHT22;6666;51.626;7.530;2023-02-28T10:24:20;3.30;99.90
13203;DHT22;6666;51.626;7.530;2023-02-28T10:26:52;3.40;99.90
13203;DHT22;6666;51.626;7.530;2023-02-28T10:29:25;3.30;99.60
13203;DHT22;6666;51.626;7.530;2023-02-28T10:31:54;3.40;99.60
13203;DHT22;6666;51.626;7.530;2023-02-28T10:34:22;3.40;98.80
13203;DHT22;6666;51.626;7.530;2023-02-28T10:36:52;3.40;98.40
13203;DHT22;6666;51.626;7.530;2023-02-28T10:39:38;3.50;98.30
13203;DHT22;6666;51.626;7.530;2023-02-28T10:42:19;3.60;98.30
13203;DHT22;6666;51.626;7.530;2023-02-28T10:44:49;3.60;98.30
13203;DHT22;6666;51.626;7.530;2023-02-28T10:47:32;3.80;98.20
13203;DHT22;6666;51.626;7.530;2023-02-28T10:50:01;3.90;98.70
13203;DHT22;6666;51.626;7.530;2023-02-28T10:52:36;3.90;97.80
13203;DHT22;6666;51.626;7.530;2023-02-28T10:55:19;3.90;97.70
13203;DHT22;6666;51.626;7.530;2023-02-28T10:57:49;3.90;97.30
13203;DHT22;6666;51.626;7.530;2023-02-28T11:00:22;4.00;97.50
13203;DHT22;6666;51.626;7.530;2023-02-28T11:02:52;4.00;97.40
13203;DHT22;6666;51.626;7.530;2023-02-28T11:05:26;4.00;98.00
13203;DHT22;6666;51.626;7.530;2023-02-28T11:07:56;4.00;97.90
13203;DHT22;6666;51.626;7.530;2023-02-28T11:10:28;4.00;98.00
13203;DHT22;6666;51.626;7.530;2023-02-28T11:12:59;4.10;97.60
13203;DHT22;6666;51.626;7.530;2023-02-28T11:15:30;4.00;97.10
13203;DHT22;6666;51.626;7.530;2023-02-28T11:18:01;4.00;97.30
13203;DHT22;6666;51.626;7.530;2023-02-28T11:20:32;4.10;97.70
13203;DHT22;6666;51.626;7.530;2023-02-28T11:23:03;4.20;97.60
13203;DHT22;6666;51.626;7.530;2023-02-28T11:25:34;4.30;98.70
13203;DHT22;6666;51.626;7.530;2023-02-28T11:28:04;4.40;97.90
13203;DHT22;6666;51.626;7.530;2023-02-28T11:30:36;4.40;97.70
13203;DHT22;6666;51.626;7.530;2023-02-28T11:33:27;4.60;97.90
13203;DHT22;6666;51.626;7.530;2023-02-28T11:35:58;4.60;98.20
13203;DHT22;6666;51.626;7.530;2023-02-28T11:38:27;4.80;98.30
13203;DHT22;6666;51.626;7.530;2023-02-28T11:41:18;4.90;98.30
13203;DHT22;6666;51.626;7.530;2023-02-28T11:44:05;4.80;98.40
13203;DHT22;6666;51.626;7.530;2023-02-28T11:46:43;4.70;98.00
13203;DHT22;6666;51.626;7.530;2023-02-28T11:49:32;4.80;98.40
13203;DHT22;6666;51.626;7.530;2023-02-28T11:52:10;4.70;98.70
13203;DHT22;6666;51.626;7.530;2023-02-28T11:54:57;4.60;99.40
13203;DHT22;6666;51.626;7.530;2023-02-28T11:57:47;4.50;99.10
13203;DHT22;6666;51.626;7.530;2023-02-28T12:00:30;4.50;99.50
13203;DHT22;6666;51.626;7.530;2023-02-28T12:03:26;4.60;99.70
13203;DHT22;6666;51.626;7.530;2023-02-28T12:06:04;4.60;99.60
13203;DHT22;6666;51.626;7.530;2023-02-28T12:08:44;4.70;99.50
13203;DHT22;6666;51.626;7.530;2023-02-28T12:11:23;4.70;99.80
13203;DHT22;6666;51.626;7.530;2023-02-28T12:14:12;4.70;99.30
13203;DHT22;6666;51.626;7.530;2023-02-28T12:16:55;4.80;99.50
13203;DHT22;6666;51.626;7.530;2023-02-28T12:19:33;4.80;99.50
13203;DHT22;6666;51.626;7.530;2023-02-28T12:22:22;4.90;99.50
13203;DHT22;6666;51.626;7.530;2023-02-28T12:25:28;5.30;99.50
13203;DHT22;6666;51.626;7.530;2023-02-28T12:28:03;5.00;98.60
13203;DHT22;6666;51.626;7.530;2023-02-28T12:30:34;5.10;99.30
13203;DHT22;6666;51.626;7.530;2023-02-28T12:33:06;5.20;99.50
13203;DHT22;6666;51.626;7.530;2023-02-28T12:35:40;4.90;99.00
13203;DHT22;6666;51.626;7.530;2023-02-28T12:38:12;4.80;99.10
13203;DHT22;6666;51.626;7.530;2023-02-28T12:40:48;4.70;99.30
13203;DHT22;6666;51.626;7.530;2023-02-28T12:43:19;4.70;99.90
13203;DHT22;6666;51.626;7.530;2023-02-28T12:45:51;4.50;99.90
13203;DHT22;6666;51.626;7.530;2023-02-28T12:48:26;4.40;99.90
13203;DHT22;6666;51.626;7.530;2023-02-28T12:50:57;4.30;99.90
13203;DHT22;6666;51.626;7.530;2023-02-28T12:53:35;4.20;99.90
13203;DHT22;6666;51.626;7.530;2023-02-28T12:56:12;4.20;99.90
13203;DHT22;6666;51.626;7.530;2023-02-28T12:58:45;4.30;99.90
13203;DHT22;6666;51.626;7.530;2023-02-28T13:01:36;4.60;99.90
13203;DHT22;6666;51.626;7.530;2023-02-28T13:10:40;4.90;99.90
13203;DHT22;6666;51.626;7.530;2023-02-28T13:13:14;5.00;99.90
13203;DHT22;6666;51.626;7.530;2023-02-28T13:16:02;4.80;99.90
13203;DHT22;6666;51.626;7.530;2023-02-28T13:18:34;4.90;99.90
13203;DHT22;6666;51.626;7.530;2023-02-28T13:21:05;5.00;99.90
13203;DHT22;6666;51.626;7.530;2023-02-28T13:23:41;4.80;99.90
13203;DHT22;6666;51.626;7.530;2023-02-28T13:29:41;4.50;99.90
13203;DHT22;6666;51.626;7.530;2023-02-28T13:32:33;4.70;99.90
13203;DHT22;6666;51.626;7.530;2023-02-28T13:35:14;4.80;99.90
13203;DHT22;6666;51.626;7.530;2023-02-28T13:37:44;4.70;99.90
13203;DHT22;6666;51.626;7.530;2023-02-28T13:40:31;4.80;99.90
13203;DHT22;6666;51.626;7.530;2023-02-28T13:43:08;4.70;99.90
13203;DHT22;6666;51.626;7.530;2023-02-28T13:45:38;4.60;99.30
13203;DHT22;6666;51.626;7.530;2023-02-28T13:48:17;4.60;99.60
13203;DHT22;6666;51.626;7.530;2023-02-28T13:50:46;4.60;99.70
13203;DHT22;6666;51.626;7.530;2023-02-28T13:56:41;4.70;99.30
13203;DHT22;6666;51.626;7.530;2023-02-28T13:59:22;4.80;99.10
13203;DHT22;6666;51.626;7.530;2023-02-28T14:02:17;4.80;99.50
13203;DHT22;6666;51.626;7.530;2023-02-28T14:05:00;4.90;99.60
13203;DHT22;6666;51.626;7.530;2023-02-28T14:07:32;4.90;99.20
13203;DHT22;6666;51.626;7.530;2023-02-28T14:10:04;4.90;99.50
13203;DHT22;6666;51.626;7.530;2023-02-28T14:12:56;5.00;99.50
13203;DHT22;6666;51.626;7.530;2023-02-28T14:15:41;5.10;99.50
13203;DHT22;6666;51.626;7.530;2023-02-28T14:18:19;5.10;99.90
13203;DHT22;6666;51.626;7.530;2023-02-28T14:20:57;5.10;99.90
13203;DHT22;6666;51.626;7.530;2023-02-28T14:26:38;5.20;99.90
13203;DHT22;6666;51.626;7.530;2023-02-28T14:29:36;5.10;99.90
13203;DHT22;6666;51.626;7.530;2023-02-28T14:32:12;5.20;99.90
13203;DHT22;6666;51.626;7.530;2023-02-28T14:34:50;5.00;99.90
13203;DHT22;6666;51.626;7.530;2023-02-28T14:37:25;4.90;99.90
13203;DHT22;6666;51.626;7.530;2023-02-28T14:39:54;4.80;99.90
13203;DHT22;6666;51.626;7.530;2023-02-28T14:42:32;4.90;99.90
13203;DHT22;6666;51.626;7.530;2023-02-28T14:45:00;4.90;99.90
13203;DHT22;6666;51.626;7.530;2023-02-28T14:47:32;4.90;99.90
13203;DHT22;6666;51.626;7.530;2023-02-28T14:50:04;4.90;99.90
13203;DHT22;6666;51.626;7.530;2023-02-28T14:52:33;4.90;99.90
13203;DHT22;6666;51.626;7.530;2023-02-28T14:55:04;5.00;99.90
13203;DHT22;6666;51.626;7.530;2023-02-28T14:57:39;4.80;99.90
13203;DHT22;6666;51.626;7.530;2023-02-28T15:00:13;4.90;99.90
13203;DHT22;6666;51.626;7.530;2023-02-28T15:02:42;4.80;99.90
13203;DHT22;6666;51.626;7.530;2023-02-28T15:05:23;4.80;99.90
13203;DHT22;6666;51.626;7.530;2023-02-28T15:08:02;4.80;99.90
13203;DHT22;6666;51.626;7.530;2023-02-28T15:10:32;4.90;99.90
13203;DHT22;6666;51.626;7.530;2023-02-28T15:13:04;4.90;99.90
13203;DHT22;6666;51.626;7.530;2023-02-28T15:15:45;4.90;99.90
13203;DHT22;6666;51.626;7.530;2023-02-28T15:18:36;4.90;99.90
13203;DHT22;6666;51.626;7.530;2023-02-28T15:21:11;4.90;99.90
13203;DHT22;6666;51.626;7.530;2023-02-28T15:23:46;4.80;99.90
13203;DHT22;6666;51.626;7.530;2023-02-28T15:26:16;4.90;99.90
13203;DHT22;6666;51.626;7.530;2023-02-28T15:28:47;4.90;99.90
13203;DHT22;6666;51.626;7.530;2023-02-28T15:31:27;4.90;99.90
13203;DHT22;6666;51.626;7.530;2023-02-28T15:34:18;4.80;99.90
13203;DHT22;6666;51.626;7.530;2023-02-28T15:36:51;4.90;99.90
13203;DHT22;6666;51.626;7.530;2023-02-28T15:39:22;4.80;99.90
13203;DHT22;6666;51.626;7.530;2023-02-28T15:41:51;4.80;99.90
13203;DHT22;6666;51.626;7.530;2023-02-28T15:44:27;4.80;99.90
13203;DHT22;6666;51.626;7.530;2023-02-28T15:46:59;4.80;99.90
13203;DHT22;6666;51.626;7.530;2023-02-28T15:49:33;4.90;99.90
13203;DHT22;6666;51.626;7.530;2023-02-28T15:52:15;4.90;99.90
13203;DHT22;6666;51.626;7.530;2023-02-28T15:54:44;4.90;99.90
13203;DHT22;6666;51.626;7.530;2023-02-28T15:57:17;4.80;99.90
13203;DHT22;6666;51.626;7.530;2023-02-28T15:59:51;4.80;99.90
13203;DHT22;6666;51.626;7.530;2023-02-28T16:02:22;4.80;99.90
13203;DHT22;6666;51.626;7.530;2023-02-28T16:05:02;4.80;99.90
13203;DHT22;6666;51.626;7.530;2023-02-28T16:07:32;4.70;99.90
13203;DHT22;6666;51.626;7.530;2023-02-28T16:10:01;4.70;99.90
13203;DHT22;6666;51.626;7.530;2023-02-28T16:12:31;4.70;99.90
13203;DHT22;6666;51.626;7.530;2023-02-28T16:15:02;4.70;99.90
13203;DHT22;6666;51.626;7.530;2023-02-28T16:17:34;4.70;99.90
13203;DHT22;6666;51.626;7.530;2023-02-28T16:20:11;4.70;99.90
13203;DHT22;6666;51.626;7.530;2023-02-28T16:22:41;4.70;99.90
13203;DHT22;6666;51.626;7.530;2023-02-28T16:25:12;4.70;99.90
13203;DHT22;6666;51.626;7.530;2023-02-28T16:27:42;4.60;99.90
13203;DHT22;6666;51.626;7.530;2023-02-28T16:30:18;4.60;99.90
13203;DHT22;6666;51.626;7.530;2023-02-28T16:32:48;4.60;99.90
13203;DHT22;6666;51.626;7.530;2023-02-28T16:35:16;4.50;99.90
13203;DHT22;6666;51.626;7.530;2023-02-28T16:37:46;4.50;99.90
13203;DHT22;6666;51.626;7.530;2023-02-28T16:40:16;4.40;99.90
13203;DHT22;6666;51.626;7.530;2023-02-28T16:42:45;4.40;99.90
13203;DHT22;6666;51.626;7.530;2023-02-28T16:45:16;4.30;99.90
13203;DHT22;6666;51.626;7.530;2023-02-28T16:47:46;4.30;99.90
13203;DHT22;6666;51.626;7.530;2023-02-28T16:50:16;4.20;99.90